createdAt,value
2022-12-19T00:01:32.461Z,87.42
2022-12-19T00:04:00.459Z,87.76
2022-12-19T00:06:27.614Z,88.03
2022-12-19T00:08:54.423Z,88.60
2022-12-19T00:11:21.371Z,88.83
2022-12-19T00:13:48.023Z,89.08
2022-12-19T00:16:18.837Z,89.47
2022-12-19T00:18:46.487Z,89.66
2022-12-19T00:21:14.919Z,89.83
2022-12-19T00:23:41.612Z,89.73
2022-12-19T00:26:08.911Z,89.99
2022-12-19T00:28:35.637Z,90.03
2022-12-19T00:31:03.119Z,89.98
2022-12-19T00:33:30.016Z,90.00
2022-12-19T00:36:01.175Z,90.01
2022-12-19T00:38:27.874Z,89.99
2022-12-19T00:40:54.574Z,90.02
2022-12-19T00:43:21.730Z,90.25
2022-12-19T00:45:48.402Z,90.36
2022-12-19T00:48:16.046Z,90.42
2022-12-19T00:50:45.964Z,90.32
2022-12-19T00:53:13.676Z,90.18
2022-12-19T00:55:40.271Z,90.27
2022-12-19T00:58:06.916Z,90.24
2022-12-19T01:00:33.657Z,90.43
2022-12-19T01:03:00.333Z,90.25
2022-12-19T01:05:29.317Z,90.28
2022-12-19T01:07:55.973Z,90.27
2022-12-19T01:10:23.494Z,90.36
2022-12-19T01:14:45.162Z,90.31
2022-12-19T01:17:11.934Z,90.30
2022-12-19T01:19:43.575Z,90.21
2022-12-19T01:22:12.397Z,90.45
2022-12-19T01:24:39.083Z,90.52
2022-12-19T01:27:05.717Z,90.65
2022-12-19T01:29:32.801Z,90.74
2022-12-19T01:32:01.319Z,90.47
2022-12-19T01:34:31.656Z,90.44
2022-12-19T01:36:58.357Z,90.29
2022-12-19T01:39:25.838Z,90.38
2022-12-19T01:41:55.773Z,90.22
2022-12-19T01:44:24.130Z,90.35
2022-12-19T01:46:52.780Z,90.14
2022-12-19T01:49:30.768Z,90.15
2022-12-19T01:51:59.159Z,90.19
2022-12-19T01:54:29.612Z,90.24
2022-12-19T01:56:57.469Z,90.04
2022-12-19T01:59:27.542Z,89.95
2022-12-19T02:01:56.623Z,89.85
2022-12-19T02:04:25.290Z,89.96
2022-12-19T02:06:52.311Z,89.96
2022-12-19T02:09:19.256Z,89.84
2022-12-19T02:11:46.094Z,89.80
2022-12-19T02:14:12.922Z,89.83
2022-12-19T02:16:47.585Z,89.81
2022-12-19T02:19:33.545Z,89.92
2022-12-19T02:22:16.114Z,90.01
2022-12-19T02:25:07.430Z,89.98
2022-12-19T02:27:46.049Z,90.02
2022-12-19T02:30:16.377Z,89.94
2022-12-19T02:32:48.710Z,90.03
2022-12-19T02:35:29.450Z,89.99
2022-12-19T02:38:42.016Z,90.11
2022-12-19T02:41:13.265Z,90.31
2022-12-19T02:43:41.795Z,90.30
2022-12-19T02:46:08.819Z,90.37
2022-12-19T02:48:35.559Z,90.63
2022-12-19T02:51:03.087Z,90.59
2022-12-19T02:53:31.997Z,90.22
2022-12-19T02:56:05.613Z,90.57
2022-12-19T02:58:49.923Z,90.74
2022-12-19T03:01:41.667Z,90.66
2022-12-19T03:04:14.695Z,90.74
2022-12-19T03:06:49.151Z,90.82
2022-12-19T03:09:52.988Z,90.73
2022-12-19T03:12:30.777Z,90.82
2022-12-19T03:14:57.635Z,90.85
2022-12-19T03:17:25.725Z,90.70
2022-12-19T03:19:52.405Z,91.13
2022-12-19T03:22:19.038Z,90.93
2022-12-19T03:24:46.095Z,90.75
2022-12-19T03:27:42.224Z,90.80
2022-12-19T03:30:11.274Z,90.70
2022-12-19T03:32:38.678Z,90.60
2022-12-19T03:35:17.245Z,90.67
2022-12-19T03:37:43.970Z,90.42
2022-12-19T03:40:16.375Z,90.41
2022-12-19T03:43:01.699Z,90.33
2022-12-19T03:45:54.674Z,90.42
2022-12-19T03:48:45.394Z,90.31
2022-12-19T03:51:18.488Z,90.14
2022-12-19T03:54:07.039Z,90.25
2022-12-19T03:57:07.694Z,90.27
2022-12-19T03:59:57.526Z,90.34
2022-12-19T04:02:24.263Z,90.36
2022-12-19T04:04:58.775Z,90.29
2022-12-19T04:07:26.054Z,90.11
2022-12-19T04:09:52.706Z,90.03
2022-12-19T04:12:21.764Z,89.83
2022-12-19T04:14:48.442Z,89.62
2022-12-19T04:17:24.908Z,89.54
2022-12-19T04:19:56.437Z,89.23
2022-12-19T04:22:36.068Z,89.16
2022-12-19T04:25:03.803Z,89.10
2022-12-19T04:27:34.430Z,88.90
2022-12-19T04:30:01.153Z,88.68
2022-12-19T04:32:27.867Z,88.88
2022-12-19T04:34:54.542Z,88.80
2022-12-19T04:37:21.224Z,88.78
2022-12-19T04:39:47.890Z,88.57
2022-12-19T04:42:14.541Z,88.20
2022-12-19T04:44:41.225Z,88.11
2022-12-19T04:47:07.900Z,87.83
2022-12-19T04:49:34.636Z,87.95
2022-12-19T04:52:01.311Z,87.68
2022-12-19T04:54:28.005Z,87.75
2022-12-19T04:56:55.382Z,87.54
2022-12-19T04:59:22.012Z,87.33
2022-12-19T05:01:48.737Z,87.16
2022-12-19T05:04:15.489Z,87.34
2022-12-19T05:06:42.137Z,87.48
2022-12-19T05:09:10.417Z,87.54
2022-12-19T05:11:37.232Z,87.34
2022-12-19T05:14:03.886Z,87.21
2022-12-19T05:16:30.589Z,86.98
2022-12-19T05:18:57.291Z,86.91
2022-12-19T05:21:24.074Z,87.09
2022-12-19T05:23:51.250Z,87.04
2022-12-19T05:26:17.980Z,86.96
2022-12-19T05:28:44.624Z,86.91
2022-12-19T05:31:15.655Z,86.87
2022-12-19T05:33:42.595Z,86.60
2022-12-19T05:36:10.067Z,86.56
2022-12-19T05:38:36.885Z,86.80
2022-12-19T05:41:11.152Z,86.65
2022-12-19T05:43:37.781Z,86.76
2022-12-19T05:46:05.193Z,86.86
2022-12-19T05:48:31.865Z,86.74
2022-12-19T05:50:58.565Z,86.51
2022-12-19T05:53:27.491Z,86.50
2022-12-19T05:56:11.900Z,86.56
2022-12-19T05:58:39.102Z,86.51
2022-12-19T06:01:11.343Z,86.51
2022-12-19T06:03:38.053Z,86.39
2022-12-19T06:06:05.662Z,86.26
2022-12-19T06:08:32.384Z,86.29
2022-12-19T06:11:03.221Z,86.18
2022-12-19T06:13:29.942Z,86.01
2022-12-19T06:16:04.151Z,85.81
2022-12-19T06:18:31.080Z,85.80
2022-12-19T06:21:02.633Z,85.91
2022-12-19T06:23:30.320Z,85.67
2022-12-19T06:25:57.791Z,85.54
2022-12-19T06:28:25.007Z,85.58
2022-12-19T06:30:51.734Z,85.54
2022-12-19T06:33:18.515Z,85.47
2022-12-19T06:35:45.143Z,85.72
2022-12-19T06:38:11.838Z,85.61
2022-12-19T06:41:03.278Z,85.65
2022-12-19T06:43:30.055Z,85.73
2022-12-19T06:45:57.023Z,85.75
2022-12-19T06:48:23.846Z,85.68
2022-12-19T06:50:50.391Z,85.64
2022-12-19T06:53:17.045Z,85.57
2022-12-19T06:55:48.642Z,85.45
2022-12-19T06:58:17.339Z,85.25
2022-12-19T07:00:46.926Z,85.24
2022-12-19T07:03:14.161Z,84.73
2022-12-19T07:05:40.863Z,84.69
2022-12-19T07:08:10.839Z,84.81
2022-12-19T07:10:37.628Z,84.78
2022-12-19T07:13:04.623Z,84.76
2022-12-19T07:15:31.980Z,84.93
2022-12-19T07:17:59.597Z,84.96
2022-12-19T07:20:26.272Z,84.94
2022-12-19T07:22:53.827Z,85.04
2022-12-19T07:25:20.535Z,84.99
2022-12-19T07:27:47.481Z,84.70
2022-12-19T07:30:14.200Z,84.76
2022-12-19T07:32:40.917Z,84.60
2022-12-19T07:35:08.096Z,84.40
2022-12-19T07:37:34.865Z,84.50
2022-12-19T07:40:01.590Z,84.44
2022-12-19T07:42:32.464Z,84.26
2022-12-19T07:45:01.435Z,84.39
2022-12-19T07:47:28.203Z,84.26
2022-12-19T07:49:54.843Z,84.27
2022-12-19T07:52:21.612Z,84.16
2022-12-19T07:54:48.307Z,84.27
2022-12-19T07:57:14.940Z,84.15
2022-12-19T07:59:41.603Z,84.05
2022-12-19T08:02:08.435Z,83.97
2022-12-19T08:04:35.127Z,83.77
2022-12-19T08:07:02.437Z,83.69
2022-12-19T08:09:29.227Z,83.88
2022-12-19T08:11:55.849Z,84.01
2022-12-19T08:14:22.527Z,83.94
2022-12-19T08:17:19.296Z,83.97
2022-12-19T08:19:35.964Z,83.95
2022-12-19T08:22:02.649Z,83.94
2022-12-19T08:24:30.882Z,83.89
2022-12-19T08:26:57.661Z,83.87
2022-12-19T08:29:24.242Z,83.90
2022-12-19T08:31:51.028Z,83.72
2022-12-19T08:34:17.712Z,83.90
2022-12-19T08:36:44.355Z,83.94
2022-12-19T08:39:11.269Z,83.83
2022-12-19T08:41:38.074Z,84.06
2022-12-19T08:44:04.799Z,84.26
2022-12-19T08:46:31.547Z,84.10
2022-12-19T08:48:58.449Z,84.22
2022-12-19T08:51:27.120Z,83.96
2022-12-19T08:53:53.860Z,83.66
2022-12-19T08:56:21.717Z,83.72
2022-12-19T08:58:48.605Z,83.76
2022-12-19T09:01:16.328Z,83.80
2022-12-19T09:04:11.484Z,83.73
2022-12-19T09:06:29.800Z,83.76
2022-12-19T09:09:00.149Z,83.68
2022-12-19T09:11:27.330Z,83.60
2022-12-19T09:13:55.553Z,83.53
2022-12-19T09:16:22.795Z,83.48
2022-12-19T09:18:51.048Z,83.38
2022-12-19T09:21:18.957Z,83.28
2022-12-19T09:23:53.530Z,83.09
2022-12-19T09:26:21.237Z,83.03
2022-12-19T09:28:49.829Z,82.82
2022-12-19T09:31:18.544Z,82.35
2022-12-19T09:33:45.302Z,82.31
2022-12-19T09:36:16.214Z,81.92
2022-12-19T09:38:43.131Z,81.79
2022-12-19T09:41:24.458Z,81.76
2022-12-19T09:44:11.975Z,81.70
2022-12-19T09:46:57.649Z,81.88
2022-12-19T09:49:43.319Z,81.84
2022-12-19T09:52:33.400Z,81.60
2022-12-19T09:55:04.944Z,81.57
2022-12-19T09:57:41.002Z,81.31
2022-12-19T10:00:13.908Z,81.00
2022-12-19T10:03:00.658Z,80.77
2022-12-19T10:06:47.837Z,80.91
2022-12-19T10:10:36.276Z,80.83
2022-12-19T10:12:39.410Z,80.90
2022-12-19T10:14:36.708Z,80.93
2022-12-19T10:17:24.582Z,81.12
2022-12-19T10:20:16.671Z,81.35
2022-12-19T10:23:08.585Z,81.30
2022-12-19T10:25:37.445Z,81.19
2022-12-19T10:28:24.417Z,81.12
2022-12-19T10:31:09.054Z,80.95
2022-12-19T10:33:47.557Z,80.75
2022-12-19T10:36:15.559Z,80.37
2022-12-19T10:38:58.318Z,79.50
2022-12-19T10:41:27.972Z,79.16
2022-12-19T10:44:05.791Z,79.34
2022-12-19T10:46:49.208Z,79.12
2022-12-19T10:49:17.750Z,79.21
2022-12-19T10:52:05.311Z,78.95
2022-12-19T10:54:38.422Z,79.07
2022-12-19T10:57:24.575Z,79.27
2022-12-19T11:00:15.279Z,79.24
2022-12-19T11:02:45.541Z,79.44
2022-12-19T11:05:27.198Z,79.14
2022-12-19T11:08:06.192Z,79.16
2022-12-19T11:12:19.498Z,78.98
2022-12-19T11:19:25.179Z,78.85
2022-12-19T11:21:46.317Z,78.89
2022-12-19T11:29:39.119Z,78.81
2022-12-19T11:29:46.487Z,78.81
2022-12-19T11:30:08.857Z,78.61
2022-12-19T11:30:35.460Z,78.59
2022-12-19T17:48:54.619Z,86.13
2022-12-19T17:51:21.966Z,85.93
2022-12-19T17:53:49.855Z,85.84
2022-12-19T17:56:17.634Z,85.86
2022-12-19T17:58:44.321Z,85.82
2022-12-19T18:01:21.337Z,85.83
2022-12-19T18:03:48.816Z,85.89
2022-12-19T18:06:15.706Z,85.98
2022-12-19T18:08:42.301Z,85.82
2022-12-19T18:11:20.918Z,85.70
2022-12-19T18:13:47.754Z,85.69
2022-12-19T18:16:15.026Z,85.60
2022-12-19T18:18:41.763Z,85.48
2022-12-19T18:21:17.753Z,85.30
2022-12-19T18:23:44.502Z,85.34
2022-12-19T18:26:11.542Z,85.38
2022-12-19T18:28:39.123Z,85.25
2022-12-19T18:31:25.615Z,85.15
2022-12-19T18:33:52.902Z,84.92
2022-12-19T18:36:24.326Z,85.07
2022-12-19T18:38:51.305Z,84.77
2022-12-19T18:41:18.307Z,84.76
2022-12-19T18:43:45.113Z,84.77
2022-12-19T18:46:12.554Z,84.60
2022-12-19T18:48:39.295Z,84.65
2022-12-19T18:51:06.068Z,84.54
2022-12-19T18:53:35.503Z,84.51
2022-12-19T18:56:03.154Z,84.67
2022-12-19T18:58:29.856Z,84.67
2022-12-19T19:00:59.386Z,84.52
2022-12-19T19:03:29.163Z,84.64
2022-12-19T19:05:56.025Z,84.73
2022-12-19T19:08:23.991Z,84.66
2022-12-19T19:10:59.946Z,84.78
2022-12-19T19:13:26.906Z,84.60
2022-12-19T19:15:56.475Z,84.91
2022-12-19T19:18:29.892Z,84.86
2022-12-19T19:21:01.068Z,84.71
2022-12-19T19:23:30.231Z,84.65
2022-12-19T19:25:57.058Z,84.65
2022-12-19T19:28:23.679Z,84.65
2022-12-19T19:30:50.797Z,84.55
2022-12-19T19:33:19.348Z,84.58
2022-12-19T19:35:46.741Z,84.52
2022-12-19T19:38:13.501Z,84.52
2022-12-19T19:40:40.146Z,84.47
2022-12-19T19:43:07.157Z,84.56
2022-12-19T19:45:38.149Z,84.47
2022-12-19T19:48:10.305Z,84.61
2022-12-19T19:50:37.140Z,84.58
2022-12-19T19:53:04.297Z,84.66
2022-12-19T19:55:31.528Z,84.64
2022-12-19T19:57:58.405Z,84.43
2022-12-19T20:00:25.297Z,84.57
2022-12-19T20:02:52.859Z,84.58
2022-12-19T20:05:23.022Z,84.53
2022-12-19T20:07:49.881Z,84.66
2022-12-19T20:10:16.737Z,84.50
2022-12-19T20:30:09.088Z,84.06
2022-12-19T20:32:36.032Z,83.62
2022-12-19T20:35:02.717Z,83.74
2022-12-19T20:37:29.671Z,83.96
2022-12-19T20:39:56.494Z,84.13
2022-12-19T20:42:23.199Z,84.26
2022-12-19T20:44:49.893Z,84.30
2022-12-19T20:47:16.573Z,84.28
2022-12-19T20:49:44.520Z,84.28
2022-12-19T20:52:11.683Z,84.53
2022-12-19T20:54:38.520Z,84.72
2022-12-19T20:57:05.331Z,84.62
2022-12-19T20:59:32.013Z,84.77
2022-12-19T21:02:00.659Z,84.75
2022-12-19T21:04:27.514Z,84.60
2022-12-19T21:06:54.577Z,84.62
2022-12-19T21:09:21.196Z,84.75
2022-12-19T21:11:47.922Z,84.59
2022-12-19T21:14:14.576Z,84.65
2022-12-19T21:16:41.356Z,84.61
2022-12-19T21:19:08.732Z,84.58
2022-12-19T21:21:35.454Z,84.67
2022-12-19T21:24:02.337Z,84.64
2022-12-19T21:26:29.001Z,84.47
2022-12-19T21:28:58.020Z,84.37
2022-12-19T21:31:26.347Z,84.63
2022-12-19T21:34:00.206Z,84.24
2022-12-19T21:36:27.747Z,84.17
2022-12-19T21:38:56.588Z,84.47
2022-12-19T21:41:23.567Z,84.42
2022-12-19T21:43:53.554Z,84.57
2022-12-19T21:46:25.352Z,84.64
2022-12-19T21:48:53.609Z,84.59
2022-12-19T21:51:21.537Z,84.61
2022-12-19T21:53:48.534Z,84.85
2022-12-19T21:56:20.238Z,84.86
2022-12-19T21:58:47.039Z,85.07
2022-12-19T22:01:13.847Z,85.18
2022-12-19T22:03:40.803Z,85.16
2022-12-19T22:06:08.866Z,85.33
2022-12-19T22:08:36.449Z,85.33
2022-12-19T22:11:03.201Z,85.61
2022-12-19T22:13:29.924Z,85.58
2022-12-19T22:16:01.487Z,85.52
2022-12-19T22:18:28.214Z,85.48
2022-12-19T22:20:57.319Z,85.47
2022-12-19T22:23:24.001Z,85.23
2022-12-19T22:25:53.069Z,85.04
2022-12-19T22:28:19.706Z,85.00
2022-12-19T22:30:46.999Z,84.76
2022-12-19T22:33:13.691Z,84.52
2022-12-19T22:35:40.443Z,84.21
2022-12-19T22:38:07.104Z,84.13
2022-12-19T22:40:34.417Z,84.01
2022-12-19T22:43:01.120Z,83.73
2022-12-19T22:45:30.502Z,83.59
2022-12-19T22:47:57.208Z,83.31
2022-12-19T22:50:23.910Z,83.15
2022-12-19T22:52:50.558Z,83.14
2022-12-19T22:55:17.448Z,82.98
2022-12-19T22:57:44.029Z,82.67
2022-12-19T23:00:13.554Z,82.52
2022-12-19T23:02:43.972Z,82.11
2022-12-19T23:05:10.896Z,81.95
2022-12-19T23:07:37.566Z,81.88
2022-12-19T23:10:04.628Z,81.67
2022-12-19T23:12:31.320Z,81.39
2022-12-19T23:14:58.150Z,81.30
2022-12-19T23:17:24.775Z,81.12
2022-12-19T23:19:51.423Z,80.88
2022-12-19T23:22:18.229Z,80.93
2022-12-19T23:24:44.878Z,80.87
2022-12-19T23:27:11.540Z,80.58
2022-12-19T23:29:38.213Z,80.38
2022-12-19T23:32:05.247Z,80.41
2022-12-19T23:34:31.975Z,80.30
2022-12-19T23:37:10.837Z,80.05
2022-12-19T23:39:38.183Z,79.88
2022-12-19T23:42:04.924Z,79.73
2022-12-19T23:44:31.786Z,79.59
2022-12-19T23:47:02.935Z,79.48
2022-12-19T23:49:30.531Z,79.49
2022-12-19T23:51:57.175Z,79.40
2022-12-19T23:54:23.964Z,79.28
2022-12-19T23:56:51.492Z,79.45
2022-12-19T23:59:18.289Z,79.46
